createdAt,value
2023-05-08T00:01:31.588Z,15.60
2023-05-08T00:03:58.993Z,15.50
2023-05-08T00:06:27.807Z,15.60
2023-05-08T00:08:55.490Z,15.60
2023-05-08T00:11:22.817Z,15.60
2023-05-08T00:13:49.944Z,15.60
2023-05-08T00:16:17.224Z,15.50
2023-05-08T00:18:44.481Z,15.50
2023-05-08T00:21:11.698Z,15.50
2023-05-08T00:23:38.852Z,15.50
2023-05-08T00:26:06.330Z,15.40
2023-05-08T00:28:33.495Z,15.40
2023-05-08T00:31:02.067Z,15.50
2023-05-08T00:33:29.351Z,15.40
2023-05-08T00:36:01.502Z,15.30
2023-05-08T00:38:36.143Z,15.30
2023-05-08T00:41:03.487Z,15.20
2023-05-08T00:43:30.754Z,15.30
2023-05-08T00:46:01.494Z,15.20
2023-05-08T00:48:31.953Z,15.20
2023-05-08T00:51:00.793Z,15.10
2023-05-08T00:53:30.868Z,15.10
2023-05-08T00:55:58.790Z,15.10
2023-05-08T00:58:27.370Z,15.00
2023-05-08T01:00:56.641Z,15.00
2023-05-08T01:03:24.895Z,15.00
2023-05-08T01:05:52.317Z,14.90
2023-05-08T01:08:19.604Z,15.00
2023-05-08T01:11:06.020Z,15.00
2023-05-08T01:13:47.969Z,14.90
2023-05-08T01:16:38.411Z,14.90
2023-05-08T01:19:36.255Z,14.90
2023-05-08T01:22:31.236Z,14.90
2023-05-08T01:25:45.899Z,14.90
2023-05-08T01:28:31.913Z,14.80
2023-05-08T01:31:01.229Z,14.70
2023-05-08T01:33:44.021Z,14.80
2023-05-08T01:36:50.229Z,14.70
2023-05-08T01:39:39.275Z,14.70
2023-05-08T01:42:13.832Z,14.70
2023-05-08T01:44:51.664Z,14.70
2023-05-08T01:47:24.038Z,14.70
2023-05-08T01:50:02.078Z,14.60
2023-05-08T01:52:36.850Z,14.60
2023-05-08T01:55:08.846Z,14.70
2023-05-08T01:57:40.221Z,14.60
2023-05-08T02:00:10.081Z,14.60
2023-05-08T02:02:40.934Z,14.60
2023-05-08T02:05:09.253Z,14.60
2023-05-08T02:07:40.652Z,14.50
2023-05-08T02:10:08.877Z,14.50
2023-05-08T02:12:37.860Z,14.40
2023-05-08T02:15:08.015Z,14.30
2023-05-08T02:17:39.626Z,14.30
2023-05-08T02:20:14.637Z,14.30
2023-05-08T02:22:47.986Z,14.30
2023-05-08T02:25:16.227Z,14.30
2023-05-08T02:27:47.503Z,14.30
2023-05-08T02:30:17.502Z,14.20
2023-05-08T02:32:46.626Z,14.30
2023-05-08T02:35:16.884Z,14.30
2023-05-08T02:37:51.533Z,14.20
2023-05-08T02:40:20.441Z,14.20
2023-05-08T02:42:47.820Z,14.10
2023-05-08T02:45:15.237Z,14.00
2023-05-08T02:48:03.463Z,14.00
2023-05-08T02:50:40.780Z,13.90
2023-05-08T02:53:16.070Z,13.80
2023-05-08T02:55:49.099Z,13.80
2023-05-08T02:58:29.966Z,13.70
2023-05-08T03:01:06.579Z,13.60
2023-05-08T03:03:59.293Z,13.70
2023-05-08T03:06:28.098Z,13.70
2023-05-08T03:08:59.656Z,13.80
2023-05-08T03:11:38.653Z,13.70
2023-05-08T03:14:09.844Z,13.60
2023-05-08T03:16:39.603Z,13.70
2023-05-08T03:19:12.758Z,13.70
2023-05-08T03:21:43.007Z,13.70
2023-05-08T03:24:12.114Z,13.50
2023-05-08T03:26:39.428Z,13.60
2023-05-08T03:29:07.637Z,13.50
2023-05-08T03:31:36.332Z,13.50
2023-05-08T03:34:04.997Z,13.60
2023-05-08T03:36:32.664Z,13.50
2023-05-08T03:39:00.944Z,13.50
2023-05-08T03:41:28.462Z,13.50
2023-05-08T03:43:57.088Z,13.50
2023-05-08T03:46:25.711Z,13.50
2023-05-08T03:48:54.287Z,13.50
2023-05-08T03:51:22.700Z,13.50
2023-05-08T03:53:51.323Z,13.40
2023-05-08T03:56:19.096Z,13.40
2023-05-08T03:58:52.490Z,13.50
2023-05-08T04:01:37.295Z,13.40
2023-05-08T04:04:10.199Z,13.40
2023-05-08T04:07:19.234Z,13.40
2023-05-08T04:10:05.067Z,13.40
2023-05-08T04:12:40.572Z,13.40
2023-05-08T04:15:28.381Z,13.40
2023-05-08T04:18:00.344Z,13.40
2023-05-08T04:20:31.454Z,13.30
2023-05-08T04:23:01.022Z,13.30
2023-05-08T04:25:30.911Z,13.40
2023-05-08T04:27:59.539Z,13.30
2023-05-08T04:30:29.910Z,13.30
2023-05-08T04:32:58.010Z,13.40
2023-05-08T04:35:26.286Z,13.20
2023-05-08T04:37:53.729Z,13.20
2023-05-08T04:40:21.115Z,13.30
2023-05-08T04:42:48.420Z,13.30
2023-05-08T04:45:18.823Z,13.20
2023-05-08T04:47:46.115Z,13.20
2023-05-08T04:50:13.726Z,13.20
2023-05-08T04:52:42.657Z,13.20
2023-05-08T04:55:10.750Z,13.20
2023-05-08T04:57:39.479Z,13.10
2023-05-08T05:00:07.326Z,13.10
2023-05-08T05:02:38.817Z,13.10
2023-05-08T05:05:07.219Z,13.10
2023-05-08T05:07:34.834Z,13.10
2023-05-08T05:10:02.917Z,13.10
2023-05-08T05:12:31.519Z,13.10
2023-05-08T05:14:59.024Z,13.10
2023-05-08T05:17:30.739Z,13.00
2023-05-08T05:19:58.242Z,13.00
2023-05-08T05:22:25.715Z,13.00
2023-05-08T05:24:53.159Z,13.00
2023-05-08T05:27:21.419Z,13.00
2023-05-08T05:29:49.146Z,13.00
2023-05-08T05:32:16.408Z,13.00
2023-05-08T05:34:43.611Z,12.90
2023-05-08T05:37:11.034Z,13.00
2023-05-08T05:39:38.574Z,13.10
2023-05-08T05:42:06.526Z,13.10
2023-05-08T05:44:33.791Z,13.00
2023-05-08T05:47:01.085Z,13.10
2023-05-08T05:49:28.336Z,13.00
2023-05-08T05:51:56.070Z,13.00
2023-05-08T05:54:23.339Z,13.00
2023-05-08T05:56:50.520Z,13.00
2023-05-08T05:59:18.334Z,13.00
2023-05-08T06:01:45.685Z,13.00
2023-05-08T06:04:13.141Z,13.00
2023-05-08T06:06:40.385Z,13.10
2023-05-08T06:09:07.578Z,13.00
2023-05-08T06:11:34.813Z,12.90
2023-05-08T06:14:02.576Z,12.80
2023-05-08T06:16:30.679Z,12.90
2023-05-08T06:18:57.937Z,12.90
2023-05-08T06:21:26.698Z,12.90
2023-05-08T06:23:54.059Z,12.80
2023-05-08T06:26:23.533Z,12.90
2023-05-08T06:28:50.835Z,13.00
2023-05-08T06:31:18.789Z,13.00
2023-05-08T06:33:46.058Z,13.10
2023-05-08T06:36:13.437Z,13.20
2023-05-08T06:38:40.641Z,13.20
2023-05-08T06:41:07.839Z,13.40
2023-05-08T06:43:35.006Z,13.30
2023-05-08T06:46:02.212Z,13.40
2023-05-08T06:48:29.605Z,13.50
2023-05-08T06:50:56.800Z,13.40
2023-05-08T06:53:25.798Z,13.50
2023-05-08T06:55:52.984Z,13.60
2023-05-08T06:58:20.289Z,13.50
2023-05-08T07:00:47.443Z,13.60
2023-05-08T07:03:14.758Z,13.60
2023-05-08T07:05:42.270Z,13.80
2023-05-08T07:08:09.458Z,13.80
2023-05-08T07:10:36.612Z,13.80
2023-05-08T07:13:03.836Z,13.90
2023-05-08T07:15:34.065Z,13.80
2023-05-08T07:18:01.549Z,13.80
2023-05-08T07:20:28.887Z,13.90
2023-05-08T07:22:56.117Z,14.10
2023-05-08T07:25:23.328Z,14.20
2023-05-08T07:27:50.584Z,14.30
2023-05-08T07:30:18.030Z,14.40
2023-05-08T07:32:45.477Z,14.50
2023-05-08T07:35:13.381Z,14.70
2023-05-08T07:37:40.792Z,14.70
2023-05-08T07:40:08.735Z,14.70
2023-05-08T07:42:42.909Z,14.80
2023-05-08T07:45:12.168Z,14.60
2023-05-08T07:47:49.276Z,14.80
2023-05-08T07:50:16.646Z,14.80
2023-05-08T07:52:43.885Z,14.80
2023-05-08T07:55:11.406Z,14.90
2023-05-08T07:57:40.615Z,14.90
2023-05-08T08:00:13.264Z,15.10
2023-05-08T08:02:45.038Z,15.20
2023-05-08T08:05:13.139Z,15.30
2023-05-08T08:07:40.735Z,15.40
2023-05-08T08:10:08.462Z,15.40
2023-05-08T08:12:35.961Z,15.60
2023-05-08T08:15:03.550Z,15.70
2023-05-08T08:17:30.860Z,15.90
2023-05-08T08:19:58.213Z,16.00
2023-05-08T08:22:26.305Z,16.20
2023-05-08T08:24:56.267Z,16.10
2023-05-08T08:27:23.940Z,16.10
2023-05-08T08:29:58.549Z,16.20
2023-05-08T08:32:28.669Z,16.30
2023-05-08T08:34:56.413Z,16.30
2023-05-08T08:37:24.330Z,16.40
2023-05-08T08:39:51.674Z,16.50
2023-05-08T08:42:18.906Z,16.40
2023-05-08T08:44:46.471Z,16.40
2023-05-08T08:47:17.940Z,16.50
2023-05-08T08:49:49.296Z,16.60
2023-05-08T08:52:31.933Z,16.70
2023-05-08T08:55:02.292Z,16.70
2023-05-08T08:57:33.996Z,16.80
2023-05-08T09:00:07.316Z,17.00
2023-05-08T09:02:35.351Z,17.00
2023-05-08T09:05:03.536Z,17.20
2023-05-08T09:07:30.826Z,17.30
2023-05-08T09:09:58.469Z,17.50
2023-05-08T09:12:25.753Z,17.60
2023-05-08T09:14:53.039Z,17.70
2023-05-08T09:17:20.174Z,17.50
2023-05-08T09:19:49.502Z,17.50
2023-05-08T09:22:17.620Z,17.50
2023-05-08T09:24:58.805Z,17.60
2023-05-08T09:27:28.815Z,17.60
2023-05-08T09:30:18.308Z,17.50
2023-05-08T09:32:45.687Z,17.40
2023-05-08T09:35:13.888Z,17.30
2023-05-08T09:37:46.352Z,17.30
2023-05-08T09:40:26.859Z,17.50
2023-05-08T09:42:58.646Z,17.60
2023-05-08T09:45:27.490Z,17.60
2023-05-08T09:47:54.849Z,17.60
2023-05-08T09:50:22.183Z,17.60
2023-05-08T09:52:50.718Z,17.70
2023-05-08T09:55:18.284Z,17.90
2023-05-08T09:57:57.925Z,18.00
2023-05-08T10:00:27.593Z,18.20
2023-05-08T10:03:02.844Z,18.20
2023-05-08T10:05:32.575Z,18.40
2023-05-08T10:08:23.370Z,18.60
2023-05-08T10:10:51.083Z,18.70
2023-05-08T10:13:18.357Z,18.80
2023-05-08T10:15:48.706Z,18.90
2023-05-08T10:18:18.801Z,18.90
2023-05-08T10:20:48.703Z,19.00
2023-05-08T10:23:17.848Z,18.90
2023-05-08T10:25:46.678Z,18.90
2023-05-08T10:28:37.579Z,18.90
2023-05-08T10:31:07.821Z,18.80
2023-05-08T10:33:37.632Z,18.80
2023-05-08T10:36:05.802Z,18.80
2023-05-08T10:38:33.852Z,18.80
2023-05-08T10:41:02.122Z,19.00
2023-05-08T10:43:33.648Z,19.20
2023-05-08T10:46:08.741Z,19.20
2023-05-08T10:48:43.700Z,19.20
2023-05-08T10:51:16.864Z,19.20
2023-05-08T10:53:59.248Z,19.30
2023-05-08T10:56:27.438Z,19.40
2023-05-08T10:58:58.938Z,19.50
2023-05-08T11:01:27.128Z,19.40
2023-05-08T11:03:57.331Z,19.20
2023-05-08T11:06:44.488Z,19.20
2023-05-08T11:09:20.152Z,19.40
2023-05-08T11:12:00.335Z,19.40
2023-05-08T11:14:28.783Z,19.30
2023-05-08T11:17:01.860Z,19.40
2023-05-08T11:19:29.641Z,19.50
2023-05-08T11:22:29.056Z,19.60
2023-05-08T11:24:58.582Z,19.60
2023-05-08T11:27:50.906Z,19.40
2023-05-08T11:30:25.652Z,19.30
2023-05-08T11:33:15.247Z,19.30
2023-05-08T11:35:57.315Z,19.20
2023-05-08T11:38:27.270Z,19.00
2023-05-08T11:40:58.223Z,19.00
2023-05-08T11:43:36.243Z,18.60
2023-05-08T11:46:18.041Z,18.70
2023-05-08T11:48:45.376Z,18.80
2023-05-08T11:51:13.681Z,18.80
2023-05-08T11:53:41.035Z,18.90
2023-05-08T11:56:08.685Z,19.00
2023-05-08T11:58:36.638Z,19.00
2023-05-08T12:01:04.029Z,19.10
2023-05-08T12:03:33.316Z,19.20
2023-05-08T12:06:00.692Z,19.30
2023-05-08T12:08:28.083Z,19.30
2023-05-08T12:10:57.043Z,19.30
2023-05-08T12:13:29.385Z,19.50
2023-05-08T12:15:58.830Z,19.60
2023-05-08T12:18:28.304Z,19.90
2023-05-08T12:21:00.219Z,19.90
2023-05-08T12:23:29.420Z,19.90
2023-05-08T12:26:00.943Z,19.90
2023-05-08T12:28:28.926Z,19.80
2023-05-08T12:30:56.724Z,19.80
2023-05-08T12:33:24.567Z,19.50
2023-05-08T12:35:51.865Z,19.40
2023-05-08T12:38:19.161Z,19.60
2023-05-08T12:40:52.854Z,19.60
2023-05-08T12:43:20.169Z,19.70
2023-05-08T12:45:51.449Z,19.70
2023-05-08T12:48:19.323Z,19.80
2023-05-08T12:50:46.878Z,19.80
2023-05-08T12:53:18.544Z,19.80
2023-05-08T12:56:01.017Z,19.80
2023-05-08T12:58:33.186Z,19.80
2023-05-08T13:01:11.834Z,19.90
2023-05-08T13:03:40.593Z,20.00
2023-05-08T13:06:18.656Z,20.10
2023-05-08T13:08:45.906Z,20.20
2023-05-08T13:11:13.134Z,20.10
2023-05-08T13:13:40.350Z,20.10
2023-05-08T13:16:08.006Z,20.00
2023-05-08T13:18:36.766Z,20.00
2023-05-08T13:21:04.205Z,20.10
2023-05-08T13:23:31.441Z,20.10
2023-05-08T13:25:58.686Z,20.00
2023-05-08T13:28:25.886Z,20.00
2023-05-08T13:30:53.041Z,19.90
2023-05-08T13:33:20.235Z,19.70
2023-05-08T13:35:47.453Z,19.60
2023-05-08T13:38:14.731Z,19.50
2023-05-08T13:40:42.039Z,19.40
2023-05-08T13:43:09.249Z,19.30
2023-05-08T13:45:36.772Z,19.10
2023-05-08T13:48:04.259Z,19.40
2023-05-08T13:50:31.540Z,19.40
2023-05-08T13:52:58.807Z,19.50
2023-05-08T13:55:26.121Z,19.60
2023-05-08T13:57:53.327Z,19.60
2023-05-08T14:00:20.640Z,19.70
2023-05-08T14:02:50.047Z,19.60
2023-05-08T14:05:18.851Z,19.50
2023-05-08T14:07:46.627Z,19.30
2023-05-08T14:10:13.889Z,19.10
2023-05-08T14:12:41.146Z,19.00
2023-05-08T14:15:08.997Z,18.90
2023-05-08T14:17:36.222Z,18.90
2023-05-08T14:20:04.128Z,19.00
2023-05-08T14:22:31.287Z,19.00
2023-05-08T14:24:58.464Z,19.00
2023-05-08T14:27:25.615Z,19.00
2023-05-08T14:29:53.630Z,19.00
2023-05-08T14:32:21.016Z,18.90
2023-05-08T14:34:48.353Z,18.90
2023-05-08T14:37:17.424Z,18.90
2023-05-08T14:39:45.443Z,18.80
2023-05-08T14:44:42.755Z,18.80
2023-05-08T14:47:10.116Z,18.70
2023-05-08T14:49:38.769Z,18.50
2023-05-08T14:52:07.443Z,18.40
2023-05-08T14:54:35.010Z,18.40
2023-05-08T14:57:02.401Z,18.40
2023-05-08T14:59:29.590Z,18.40
2023-05-08T15:01:56.791Z,18.50
2023-05-08T15:04:24.138Z,18.70
2023-05-08T15:06:51.331Z,18.70
2023-05-08T15:09:18.484Z,18.50
2023-05-08T15:11:45.682Z,18.50
2023-05-08T15:14:12.860Z,18.40
2023-05-08T15:16:40.166Z,18.30
2023-05-08T15:19:09.274Z,18.20
2023-05-08T15:21:36.568Z,18.20
2023-05-08T15:24:05.490Z,18.10
2023-05-08T15:26:32.716Z,18.10
2023-05-08T15:28:59.868Z,18.00
2023-05-08T15:31:27.077Z,18.10
2023-05-08T15:33:54.320Z,18.00
2023-05-08T15:36:22.061Z,18.10
2023-05-08T15:38:49.300Z,18.10
2023-05-08T15:41:16.519Z,18.10
2023-05-08T15:43:45.191Z,18.30
2023-05-08T15:46:12.638Z,18.30
2023-05-08T15:48:39.825Z,18.30
2023-05-08T15:51:07.042Z,18.40
2023-05-08T15:53:35.191Z,18.40
2023-05-08T15:56:04.663Z,18.40
2023-05-08T15:58:31.814Z,18.40
2023-05-08T16:00:59.077Z,18.40
2023-05-08T16:03:26.418Z,18.50
2023-05-08T16:05:53.676Z,18.60
2023-05-08T16:08:20.866Z,18.70
2023-05-08T16:10:48.570Z,18.70
2023-05-08T16:13:16.416Z,18.80
2023-05-08T16:15:43.821Z,18.70
2023-05-08T16:18:11.229Z,18.60
2023-05-08T16:20:40.340Z,18.40
2023-05-08T16:23:07.678Z,18.30
2023-05-08T16:25:35.034Z,18.30
2023-05-08T16:28:02.263Z,18.20
2023-05-08T16:30:29.714Z,18.20
2023-05-08T16:32:56.931Z,18.10
2023-05-08T16:35:24.241Z,18.10
2023-05-08T16:37:51.523Z,18.10
2023-05-08T16:40:18.788Z,18.00
2023-05-08T16:42:46.167Z,18.00
2023-05-08T16:45:13.615Z,17.80
2023-05-08T16:47:43.698Z,17.80
2023-05-08T16:50:11.277Z,17.70
2023-05-08T16:52:38.619Z,17.70
2023-05-08T16:55:06.331Z,17.60
2023-05-08T16:57:33.487Z,17.50
2023-05-08T17:00:01.234Z,17.40
2023-05-08T17:02:28.477Z,17.40
2023-05-08T17:04:55.687Z,17.30
2023-05-08T17:07:23.858Z,17.20
2023-05-08T17:09:56.514Z,17.10
2023-05-08T17:12:24.407Z,17.10
2023-05-08T17:14:51.672Z,17.00
2023-05-08T17:17:18.809Z,16.90
2023-05-08T17:19:45.990Z,16.90
2023-05-08T17:22:13.360Z,16.80
2023-05-08T17:24:40.536Z,16.80
2023-05-08T17:27:08.682Z,16.60
2023-05-08T17:29:35.949Z,16.70
2023-05-08T17:32:03.313Z,16.60
2023-05-08T17:34:30.733Z,16.60
2023-05-08T17:36:58.105Z,16.60
2023-05-08T17:39:25.395Z,16.40
2023-05-08T17:41:52.687Z,16.60
2023-05-08T17:44:19.936Z,16.40
2023-05-08T17:46:47.168Z,16.50
2023-05-08T17:49:16.391Z,16.40
2023-05-08T17:51:45.717Z,16.30
2023-05-08T17:54:13.009Z,16.30
2023-05-08T17:56:40.252Z,16.20
2023-05-08T17:59:07.511Z,16.20
2023-05-08T18:01:34.827Z,16.20
2023-05-08T18:04:02.121Z,16.20
2023-05-08T18:06:29.702Z,16.20
2023-05-08T18:08:56.828Z,16.10
2023-05-08T18:11:26.023Z,16.10
2023-05-08T18:13:53.971Z,16.10
2023-05-08T18:16:22.337Z,16.20
2023-05-08T18:18:50.208Z,16.20
2023-05-08T18:21:17.596Z,16.20
2023-05-08T18:23:44.896Z,16.10
2023-05-08T18:26:16.093Z,16.10
2023-05-08T18:28:44.009Z,16.00
2023-05-08T18:31:11.968Z,16.00
2023-05-08T18:33:39.425Z,16.00
2023-05-08T18:36:06.960Z,15.90
2023-05-08T18:38:35.490Z,15.80
2023-05-08T18:41:04.931Z,15.80
2023-05-08T18:43:32.156Z,15.80
2023-05-08T18:46:00.507Z,15.80
2023-05-08T18:48:28.191Z,15.80
2023-05-08T18:50:58.406Z,15.70
2023-05-08T18:53:25.831Z,15.70
2023-05-08T18:55:53.100Z,15.60
2023-05-08T18:58:20.350Z,15.70
2023-05-08T19:00:47.981Z,15.60
2023-05-08T19:03:15.250Z,15.60
2023-05-08T19:05:42.476Z,15.60
2023-05-08T19:08:10.826Z,15.50
2023-05-08T19:10:37.998Z,15.50
2023-05-08T19:13:05.484Z,15.40
2023-05-08T19:15:32.808Z,15.40
2023-05-08T19:18:01.911Z,15.20
2023-05-08T19:20:30.490Z,15.20
2023-05-08T19:22:57.677Z,15.10
2023-05-08T19:25:24.922Z,15.00
2023-05-08T19:27:52.417Z,15.00
2023-05-08T19:30:19.697Z,14.90
2023-05-08T19:32:46.883Z,14.90
2023-05-08T19:35:14.176Z,14.90
2023-05-08T19:37:41.646Z,14.90
2023-05-08T19:40:09.371Z,14.90
2023-05-08T19:42:36.626Z,14.90
2023-05-08T19:45:04.191Z,14.90
2023-05-08T19:47:31.411Z,14.80
2023-05-08T19:49:58.563Z,14.80
2023-05-08T19:52:25.979Z,14.80
2023-05-08T19:54:53.352Z,14.70
2023-05-08T19:57:20.615Z,14.70
2023-05-08T19:59:47.826Z,14.60
2023-05-08T20:02:15.160Z,14.50
2023-05-08T20:05:04.344Z,14.50
2023-05-08T20:07:29.655Z,14.50
2023-05-08T20:09:57.002Z,14.40
2023-05-08T20:12:24.157Z,14.40
2023-05-08T20:14:52.833Z,14.40
2023-05-08T20:17:20.110Z,14.40
2023-05-08T20:19:47.271Z,14.40
2023-05-08T20:22:14.464Z,14.40
2023-05-08T20:24:41.627Z,14.40
2023-05-08T20:27:08.860Z,14.30
2023-05-08T20:29:36.026Z,14.40
2023-05-08T20:32:03.309Z,14.40
2023-05-08T20:34:30.976Z,14.40
2023-05-08T20:36:59.113Z,14.40
2023-05-08T20:39:26.932Z,14.30
2023-05-08T20:41:54.120Z,14.40
2023-05-08T20:44:21.268Z,14.30
2023-05-08T20:46:48.493Z,14.30
2023-05-08T20:49:17.070Z,14.30
2023-05-08T20:51:44.275Z,14.20
2023-05-08T20:54:11.480Z,14.20
2023-05-08T20:56:38.684Z,14.20
2023-05-08T20:59:05.875Z,14.20
2023-05-08T21:01:33.105Z,14.10
2023-05-08T21:04:00.305Z,14.00
2023-05-08T21:06:27.515Z,14.00
2023-05-08T21:08:54.860Z,14.00
2023-05-08T21:11:22.131Z,14.00
2023-05-08T21:13:49.264Z,13.90
2023-05-08T21:16:16.538Z,13.90
2023-05-08T21:18:43.787Z,13.80
2023-05-08T21:21:19.211Z,13.80
2023-05-08T21:23:46.461Z,13.80
2023-05-08T21:26:13.697Z,13.70
2023-05-08T21:28:40.888Z,13.70
2023-05-08T21:31:08.169Z,13.70
2023-05-08T21:33:35.579Z,13.70
2023-05-08T21:36:02.821Z,13.80
2023-05-08T21:38:30.038Z,13.80
2023-05-08T21:40:57.279Z,13.70
2023-05-08T21:43:24.450Z,13.70
2023-05-08T21:45:51.633Z,13.80
2023-05-08T21:48:18.824Z,13.70
2023-05-08T21:50:45.976Z,13.70
2023-05-08T21:53:13.201Z,13.70
2023-05-08T21:55:40.338Z,13.60
2023-05-08T21:58:07.473Z,13.60
2023-05-08T22:00:34.674Z,13.50
2023-05-08T22:03:01.898Z,13.50
2023-05-08T22:05:29.124Z,13.50
2023-05-08T22:07:56.300Z,13.40
2023-05-08T22:10:25.410Z,13.40
2023-05-08T22:12:52.721Z,13.30
2023-05-08T22:15:29.749Z,13.30
2023-05-08T22:17:58.357Z,13.20
2023-05-08T22:20:25.638Z,13.20
2023-05-08T22:22:52.781Z,13.10
2023-05-08T22:25:21.636Z,13.00
2023-05-08T22:27:48.951Z,13.00
2023-05-08T22:30:16.198Z,12.90
2023-05-08T22:32:43.440Z,12.90
2023-05-08T22:35:10.818Z,12.80
2023-05-08T22:37:38.107Z,12.70
2023-05-08T22:40:06.034Z,12.70
2023-05-08T22:42:33.195Z,12.70
2023-05-08T22:45:01.100Z,12.60
2023-05-08T22:47:28.390Z,12.60
2023-05-08T22:49:55.579Z,12.60
2023-05-08T22:52:22.819Z,12.50
2023-05-08T22:54:49.991Z,12.50
2023-05-08T22:57:17.153Z,12.50
2023-05-08T22:59:44.397Z,12.50
2023-05-08T23:02:11.623Z,12.40
2023-05-08T23:04:38.845Z,12.40
2023-05-08T23:07:06.009Z,12.30
2023-05-08T23:09:33.191Z,12.30
2023-05-08T23:12:00.348Z,12.10
2023-05-08T23:14:27.686Z,12.20
2023-05-08T23:16:54.959Z,12.20
2023-05-08T23:19:22.188Z,12.10
2023-05-08T23:21:49.449Z,12.10
2023-05-08T23:24:19.837Z,12.00
2023-05-08T23:26:49.483Z,12.00
2023-05-08T23:29:16.619Z,11.90
2023-05-08T23:31:43.880Z,11.80
2023-05-08T23:34:11.118Z,11.90
2023-05-08T23:36:38.260Z,11.80
2023-05-08T23:39:05.507Z,11.70
2023-05-08T23:41:33.948Z,11.70
2023-05-08T23:44:01.144Z,11.50
2023-05-08T23:46:28.404Z,11.50
2023-05-08T23:48:55.876Z,11.50
2023-05-08T23:51:23.093Z,11.40
2023-05-08T23:53:50.788Z,11.40
2023-05-08T23:56:17.976Z,11.30
2023-05-08T23:58:45.138Z,11.30
